Pagrindinis puslapis
METAR-TAF:

METAR-TAF

Oro uostai :

Jelivarė, Švedija

platuma: 67-09N, ilguma: 020-39E, Aukštis: 359 m

Dabartinis oras

Ataskaita buvo paskelbta 45 minutes, ne 02:20 UTC
Vėjas 4 kt iš Vakarų
Temperatūra 4°C
Drėgmė 93%
Slėgis 1017 hPa
Matomumas 10 km arba daugiau

METAR: ESNG 240220Z AUTO 27004KT 9999 NCD 04/03 Q1017

Laikas: 05:05 (03:05 UTC)

Prognozė

Ataskaita buvo paskelbta 9 valandos ir 35 minutes, ne 17:30 UTC
Prognozė galioja nuo 23 metu 18 UTC su 23 metu 21 UTC
Vėjas 5 kt iš Šiaurės Vakarų
Matomumas 10 km arba daugiau
nėra debesų žemiau 1500 m ir nėra kamuolinių lietaus debesų

TAF: ESNG 231730Z 2318/2321 31005KT CAVOK

Orai ataskaitas ir orų prognozės (METAR, TAF).

turimą stotys yra geltonos ir raudonos taškus žemėlapyje.

Perkelti pele per norėdami pamatyti stoties vardą.

Tada spustelėkite, norėdami matyti oro stebėjimo ir prognozės.

Norėdami pakeisti žemėlapį: spustelėkite ant žalios mygtukų su juodo kryžiaus žemyn,; žalią mygtuką su brūkšneliu, jei norite nutolinti; arba žalių rodyklių gretimoms žemėlapius.


METAR-TAF: